sensor_id;sensor_type;location;lat;lon;timestamp;P1;durP1;ratioP1;P2;durP2;ratioP2
22415;SDS011;12204;50.600;4.608;2023-11-22T00:03:28;50.47;;;22.25;;
22415;SDS011;12204;50.600;4.608;2023-11-22T00:08:32;45.42;;;21.42;;
22415;SDS011;12204;50.600;4.608;2023-11-22T00:13:36;50.63;;;22.38;;
22415;SDS011;12204;50.600;4.608;2023-11-22T00:18:41;45.53;;;21.10;;
22415;SDS011;12204;50.600;4.608;2023-11-22T00:23:44;49.80;;;22.00;;
22415;SDS011;12204;50.600;4.608;2023-11-22T00:28:48;48.70;;;21.70;;
22415;SDS011;12204;50.600;4.608;2023-11-22T00:33:55;48.25;;;21.95;;
22415;SDS011;12204;50.600;4.608;2023-11-22T00:38:59;44.75;;;21.75;;
22415;SDS011;12204;50.600;4.608;2023-11-22T00:44:02;47.67;;;21.98;;
22415;SDS011;12204;50.600;4.608;2023-11-22T00:49:08;45.38;;;21.00;;
22415;SDS011;12204;50.600;4.608;2023-11-22T00:54:12;43.92;;;20.77;;
22415;SDS011;12204;50.600;4.608;2023-11-22T00:59:16;43.53;;;20.33;;
22415;SDS011;12204;50.600;4.608;2023-11-22T01:04:22;41.88;;;19.80;;
22415;SDS011;12204;50.600;4.608;2023-11-22T01:09:25;41.70;;;20.05;;
22415;SDS011;12204;50.600;4.608;2023-11-22T01:14:30;42.53;;;20.80;;
22415;SDS011;12204;50.600;4.608;2023-11-22T01:19:35;40.72;;;19.05;;
22415;SDS011;12204;50.600;4.608;2023-11-22T01:24:38;40.10;;;18.75;;
22415;SDS011;12204;50.600;4.608;2023-11-22T01:29:42;38.25;;;18.70;;
22415;SDS011;12204;50.600;4.608;2023-11-22T01:34:47;39.80;;;18.88;;
22415;SDS011;12204;50.600;4.608;2023-11-22T01:39:50;39.92;;;18.63;;
22415;SDS011;12204;50.600;4.608;2023-11-22T01:44:55;32.92;;;17.63;;
22415;SDS011;12204;50.600;4.608;2023-11-22T01:50:00;35.75;;;17.42;;
22415;SDS011;12204;50.600;4.608;2023-11-22T01:55:04;35.80;;;17.05;;
22415;SDS011;12204;50.600;4.608;2023-11-22T02:00:11;37.47;;;18.07;;
22415;SDS011;12204;50.600;4.608;2023-11-22T02:05:18;30.77;;;16.38;;
22415;SDS011;12204;50.600;4.608;2023-11-22T02:10:22;30.63;;;16.13;;
22415;SDS011;12204;50.600;4.608;2023-11-22T02:15:26;33.80;;;16.42;;
22415;SDS011;12204;50.600;4.608;2023-11-22T02:20:31;33.50;;;16.75;;
22415;SDS011;12204;50.600;4.608;2023-11-22T02:25:36;32.78;;;14.90;;
22415;SDS011;12204;50.600;4.608;2023-11-22T02:30:41;33.13;;;15.52;;
22415;SDS011;12204;50.600;4.608;2023-11-22T02:35:45;28.23;;;14.68;;
22415;SDS011;12204;50.600;4.608;2023-11-22T02:40:50;28.77;;;15.50;;
22415;SDS011;12204;50.600;4.608;2023-11-22T02:45:54;29.05;;;14.23;;
22415;SDS011;12204;50.600;4.608;2023-11-22T02:50:58;30.38;;;14.85;;
22415;SDS011;12204;50.600;4.608;2023-11-22T02:56:03;24.95;;;13.20;;
22415;SDS011;12204;50.600;4.608;2023-11-22T03:01:08;22.17;;;11.93;;
22415;SDS011;12204;50.600;4.608;2023-11-22T03:06:11;21.88;;;11.60;;
22415;SDS011;12204;50.600;4.608;2023-11-22T03:11:16;24.63;;;11.20;;
22415;SDS011;12204;50.600;4.608;2023-11-22T03:16:22;20.83;;;9.67;;
22415;SDS011;12204;50.600;4.608;2023-11-22T03:21:26;17.83;;;8.73;;
22415;SDS011;12204;50.600;4.608;2023-11-22T03:26:30;17.90;;;8.82;;
22415;SDS011;12204;50.600;4.608;2023-11-22T03:31:34;19.08;;;8.88;;
22415;SDS011;12204;50.600;4.608;2023-11-22T03:36:39;19.52;;;9.50;;
22415;SDS011;12204;50.600;4.608;2023-11-22T03:41:44;18.65;;;9.55;;
22415;SDS011;12204;50.600;4.608;2023-11-22T03:46:50;19.97;;;10.10;;
22415;SDS011;12204;50.600;4.608;2023-11-22T03:51:54;20.88;;;9.45;;
22415;SDS011;12204;50.600;4.608;2023-11-22T03:56:59;18.25;;;9.57;;
22415;SDS011;12204;50.600;4.608;2023-11-22T04:02:02;18.77;;;9.50;;
22415;SDS011;12204;50.600;4.608;2023-11-22T04:07:06;18.05;;;9.85;;
22415;SDS011;12204;50.600;4.608;2023-11-22T04:12:12;17.60;;;9.68;;
22415;SDS011;12204;50.600;4.608;2023-11-22T04:17:15;18.00;;;9.48;;
22415;SDS011;12204;50.600;4.608;2023-11-22T04:22:20;18.00;;;9.50;;
22415;SDS011;12204;50.600;4.608;2023-11-22T04:27:25;17.58;;;9.57;;
22415;SDS011;12204;50.600;4.608;2023-11-22T04:32:28;19.08;;;9.70;;
22415;SDS011;12204;50.600;4.608;2023-11-22T04:37:32;16.52;;;8.60;;
22415;SDS011;12204;50.600;4.608;2023-11-22T04:42:37;16.55;;;9.00;;
22415;SDS011;12204;50.600;4.608;2023-11-22T04:47:40;17.02;;;8.90;;
22415;SDS011;12204;50.600;4.608;2023-11-22T04:52:44;17.15;;;9.00;;
22415;SDS011;12204;50.600;4.608;2023-11-22T04:57:49;16.83;;;8.95;;
22415;SDS011;12204;50.600;4.608;2023-11-22T05:02:54;19.30;;;8.98;;
22415;SDS011;12204;50.600;4.608;2023-11-22T05:07:57;15.90;;;8.75;;
22415;SDS011;12204;50.600;4.608;2023-11-22T05:13:02;15.48;;;8.63;;
22415;SDS011;12204;50.600;4.608;2023-11-22T05:18:07;15.75;;;8.75;;
22415;SDS011;12204;50.600;4.608;2023-11-22T05:23:11;19.50;;;8.88;;
22415;SDS011;12204;50.600;4.608;2023-11-22T05:28:16;15.18;;;8.60;;
22415;SDS011;12204;50.600;4.608;2023-11-22T05:33:20;16.63;;;8.18;;
22415;SDS011;12204;50.600;4.608;2023-11-22T05:38:26;15.23;;;8.23;;
22415;SDS011;12204;50.600;4.608;2023-11-22T05:43:31;14.55;;;8.20;;
22415;SDS011;12204;50.600;4.608;2023-11-22T05:48:38;14.52;;;7.72;;
22415;SDS011;12204;50.600;4.608;2023-11-22T05:53:41;14.63;;;7.85;;
22415;SDS011;12204;50.600;4.608;2023-11-22T05:58:46;15.43;;;8.45;;
22415;SDS011;12204;50.600;4.608;2023-11-22T06:03:50;13.10;;;7.68;;
22415;SDS011;12204;50.600;4.608;2023-11-22T06:08:53;14.05;;;7.90;;
22415;SDS011;12204;50.600;4.608;2023-11-22T06:13:58;15.23;;;7.80;;
22415;SDS011;12204;50.600;4.608;2023-11-22T06:19:01;13.55;;;7.53;;
22415;SDS011;12204;50.600;4.608;2023-11-22T06:24:05;13.68;;;7.43;;
22415;SDS011;12204;50.600;4.608;2023-11-22T06:29:11;12.77;;;7.43;;
22415;SDS011;12204;50.600;4.608;2023-11-22T06:34:16;12.93;;;7.60;;
22415;SDS011;12204;50.600;4.608;2023-11-22T06:39:19;13.25;;;7.18;;
22415;SDS011;12204;50.600;4.608;2023-11-22T06:44:25;13.70;;;6.93;;
22415;SDS011;12204;50.600;4.608;2023-11-22T06:49:29;13.00;;;6.60;;
22415;SDS011;12204;50.600;4.608;2023-11-22T06:54:32;12.55;;;7.00;;
22415;SDS011;12204;50.600;4.608;2023-11-22T06:59:37;13.10;;;6.65;;
22415;SDS011;12204;50.600;4.608;2023-11-22T07:04:41;11.82;;;6.47;;
22415;SDS011;12204;50.600;4.608;2023-11-22T07:09:44;15.73;;;7.00;;
22415;SDS011;12204;50.600;4.608;2023-11-22T07:14:49;16.40;;;6.85;;
22415;SDS011;12204;50.600;4.608;2023-11-22T07:19:53;12.98;;;6.15;;
22415;SDS011;12204;50.600;4.608;2023-11-22T07:24:56;11.23;;;6.40;;
22415;SDS011;12204;50.600;4.608;2023-11-22T07:30:04;10.80;;;6.30;;
22415;SDS011;12204;50.600;4.608;2023-11-22T07:35:10;13.15;;;6.50;;
22415;SDS011;12204;50.600;4.608;2023-11-22T07:40:14;10.13;;;5.65;;
22415;SDS011;12204;50.600;4.608;2023-11-22T07:45:21;9.93;;;5.40;;
22415;SDS011;12204;50.600;4.608;2023-11-22T07:50:24;9.07;;;4.80;;
22415;SDS011;12204;50.600;4.608;2023-11-22T07:55:28;9.38;;;5.22;;
22415;SDS011;12204;50.600;4.608;2023-11-22T08:00:33;9.75;;;4.40;;
22415;SDS011;12204;50.600;4.608;2023-11-22T08:05:38;10.10;;;4.60;;
22415;SDS011;12204;50.600;4.608;2023-11-22T08:10:42;8.60;;;4.60;;
22415;SDS011;12204;50.600;4.608;2023-11-22T08:15:46;8.45;;;4.15;;
22415;SDS011;12204;50.600;4.608;2023-11-22T08:20:50;13.38;;;4.32;;
22415;SDS011;12204;50.600;4.608;2023-11-22T08:25:53;8.82;;;4.22;;
22415;SDS011;12204;50.600;4.608;2023-11-22T08:30:59;9.38;;;4.63;;
22415;SDS011;12204;50.600;4.608;2023-11-22T08:36:03;14.43;;;4.90;;
22415;SDS011;12204;50.600;4.608;2023-11-22T08:41:09;12.32;;;4.40;;
22415;SDS011;12204;50.600;4.608;2023-11-22T08:46:17;12.02;;;4.60;;
22415;SDS011;12204;50.600;4.608;2023-11-22T08:51:20;10.75;;;4.35;;
22415;SDS011;12204;50.600;4.608;2023-11-22T08:56:24;12.68;;;4.38;;
22415;SDS011;12204;50.600;4.608;2023-11-22T09:01:29;9.35;;;4.63;;
22415;SDS011;12204;50.600;4.608;2023-11-22T09:06:32;11.38;;;4.28;;
22415;SDS011;12204;50.600;4.608;2023-11-22T09:11:36;10.43;;;4.68;;
22415;SDS011;12204;50.600;4.608;2023-11-22T09:16:42;10.60;;;4.80;;
22415;SDS011;12204;50.600;4.608;2023-11-22T09:21:45;9.68;;;4.85;;
22415;SDS011;12204;50.600;4.608;2023-11-22T09:26:49;9.85;;;5.45;;
22415;SDS011;12204;50.600;4.608;2023-11-22T09:31:54;11.52;;;6.40;;
22415;SDS011;12204;50.600;4.608;2023-11-22T09:36:58;9.77;;;6.25;;
22415;SDS011;12204;50.600;4.608;2023-11-22T09:42:01;12.27;;;6.53;;
22415;SDS011;12204;50.600;4.608;2023-11-22T09:47:07;10.98;;;6.90;;
22415;SDS011;12204;50.600;4.608;2023-11-22T09:52:11;11.68;;;6.45;;
22415;SDS011;12204;50.600;4.608;2023-11-22T09:57:23;9.88;;;6.70;;
22415;SDS011;12204;50.600;4.608;2023-11-22T10:02:32;13.13;;;6.70;;
22415;SDS011;12204;50.600;4.608;2023-11-22T10:07:37;10.07;;;6.50;;
22415;SDS011;12204;50.600;4.608;2023-11-22T10:12:42;9.57;;;6.32;;
22415;SDS011;12204;50.600;4.608;2023-11-22T10:17:54;10.10;;;6.97;;
22415;SDS011;12204;50.600;4.608;2023-11-22T10:23:02;16.55;;;8.98;;
22415;SDS011;12204;50.600;4.608;2023-11-22T10:28:06;31.17;;;10.90;;
22415;SDS011;12204;50.600;4.608;2023-11-22T10:33:11;23.20;;;10.73;;
22415;SDS011;12204;50.600;4.608;2023-11-22T10:38:16;29.50;;;10.63;;
22415;SDS011;12204;50.600;4.608;2023-11-22T10:43:20;22.00;;;10.10;;
22415;SDS011;12204;50.600;4.608;2023-11-22T10:48:29;29.00;;;10.40;;
22415;SDS011;12204;50.600;4.608;2023-11-22T10:53:35;42.33;;;17.70;;
22415;SDS011;12204;50.600;4.608;2023-11-22T10:58:41;58.65;;;23.08;;
22415;SDS011;12204;50.600;4.608;2023-11-22T11:03:53;64.93;;;26.15;;
22415;SDS011;12204;50.600;4.608;2023-11-22T11:09:07;62.03;;;26.92;;
22415;SDS011;12204;50.600;4.608;2023-11-22T11:14:12;64.65;;;26.30;;
22415;SDS011;12204;50.600;4.608;2023-11-22T11:19:18;57.92;;;26.27;;
22415;SDS011;12204;50.600;4.608;2023-11-22T11:24:23;64.20;;;27.55;;
22415;SDS011;12204;50.600;4.608;2023-11-22T11:29:29;57.47;;;26.40;;
22415;SDS011;12204;50.600;4.608;2023-11-22T11:34:39;58.22;;;25.50;;
22415;SDS011;12204;50.600;4.608;2023-11-22T11:39:51;60.17;;;25.23;;
22415;SDS011;12204;50.600;4.608;2023-11-22T11:50:17;56.33;;;25.15;;
22415;SDS011;12204;50.600;4.608;2023-11-22T11:55:23;57.88;;;24.67;;
22415;SDS011;12204;50.600;4.608;2023-11-22T12:00:28;54.75;;;24.02;;
22415;SDS011;12204;50.600;4.608;2023-11-22T12:05:33;51.22;;;24.48;;
22415;SDS011;12204;50.600;4.608;2023-11-22T12:10:36;55.13;;;24.23;;
22415;SDS011;12204;50.600;4.608;2023-11-22T12:15:40;54.72;;;24.00;;
22415;SDS011;12204;50.600;4.608;2023-11-22T12:20:54;51.83;;;22.50;;
22415;SDS011;12204;50.600;4.608;2023-11-22T12:26:01;50.28;;;22.73;;
22415;SDS011;12204;50.600;4.608;2023-11-22T12:31:08;46.75;;;22.25;;
22415;SDS011;12204;50.600;4.608;2023-11-22T12:41:18;46.67;;;21.23;;
22415;SDS011;12204;50.600;4.608;2023-11-22T12:46:23;46.25;;;21.40;;
22415;SDS011;12204;50.600;4.608;2023-11-22T12:51:28;47.20;;;21.70;;
22415;SDS011;12204;50.600;4.608;2023-11-22T12:56:32;54.33;;;22.60;;
22415;SDS011;12204;50.600;4.608;2023-11-22T13:01:35;68.32;;;23.45;;
22415;SDS011;12204;50.600;4.608;2023-11-22T13:06:40;58.35;;;22.52;;
22415;SDS011;12204;50.600;4.608;2023-11-22T13:11:44;62.40;;;23.15;;
22415;SDS011;12204;50.600;4.608;2023-11-22T13:16:47;63.22;;;23.67;;
22415;SDS011;12204;50.600;4.608;2023-11-22T13:21:52;60.65;;;22.23;;
22415;SDS011;12204;50.600;4.608;2023-11-22T13:26:56;60.35;;;21.85;;
22415;SDS011;12204;50.600;4.608;2023-11-22T13:31:59;52.53;;;21.02;;
22415;SDS011;12204;50.600;4.608;2023-11-22T13:37:04;56.08;;;21.17;;
22415;SDS011;12204;50.600;4.608;2023-11-22T13:42:07;60.20;;;20.50;;
22415;SDS011;12204;50.600;4.608;2023-11-22T13:47:11;54.95;;;19.98;;
22415;SDS011;12204;50.600;4.608;2023-11-22T13:52:16;48.45;;;18.67;;
22415;SDS011;12204;50.600;4.608;2023-11-22T13:57:20;45.58;;;18.13;;
22415;SDS011;12204;50.600;4.608;2023-11-22T14:02:23;46.90;;;17.20;;
22415;SDS011;12204;50.600;4.608;2023-11-22T14:07:28;47.60;;;17.83;;
22415;SDS011;12204;50.600;4.608;2023-11-22T14:12:31;46.10;;;17.52;;
22415;SDS011;12204;50.600;4.608;2023-11-22T14:17:35;44.15;;;17.20;;
22415;SDS011;12204;50.600;4.608;2023-11-22T14:22:42;45.38;;;16.40;;
22415;SDS011;12204;50.600;4.608;2023-11-22T14:27:46;40.95;;;15.95;;
22415;SDS011;12204;50.600;4.608;2023-11-22T14:32:54;37.63;;;15.48;;
22415;SDS011;12204;50.600;4.608;2023-11-22T14:38:01;35.22;;;15.60;;
22415;SDS011;12204;50.600;4.608;2023-11-22T14:43:07;35.13;;;14.48;;
22415;SDS011;12204;50.600;4.608;2023-11-22T14:48:11;35.25;;;14.90;;
22415;SDS011;12204;50.600;4.608;2023-11-22T14:53:19;35.50;;;14.88;;
22415;SDS011;12204;50.600;4.608;2023-11-22T14:58:22;36.22;;;14.65;;
22415;SDS011;12204;50.600;4.608;2023-11-22T15:03:28;34.72;;;14.20;;
22415;SDS011;12204;50.600;4.608;2023-11-22T15:08:34;31.35;;;13.70;;
22415;SDS011;12204;50.600;4.608;2023-11-22T15:13:38;35.28;;;13.57;;
22415;SDS011;12204;50.600;4.608;2023-11-22T15:18:41;29.57;;;12.63;;
22415;SDS011;12204;50.600;4.608;2023-11-22T15:23:46;30.02;;;11.85;;
22415;SDS011;12204;50.600;4.608;2023-11-22T15:28:50;29.08;;;12.05;;
22415;SDS011;12204;50.600;4.608;2023-11-22T15:33:54;28.60;;;12.20;;
22415;SDS011;12204;50.600;4.608;2023-11-22T15:38:58;27.20;;;11.98;;
22415;SDS011;12204;50.600;4.608;2023-11-22T15:44:02;25.92;;;11.00;;
22415;SDS011;12204;50.600;4.608;2023-11-22T15:49:07;20.33;;;10.57;;
22415;SDS011;12204;50.600;4.608;2023-11-22T15:54:12;24.08;;;11.50;;
22415;SDS011;12204;50.600;4.608;2023-11-22T15:59:15;24.83;;;10.88;;
22415;SDS011;12204;50.600;4.608;2023-11-22T16:04:19;25.75;;;10.80;;
22415;SDS011;12204;50.600;4.608;2023-11-22T16:09:24;24.00;;;11.55;;
22415;SDS011;12204;50.600;4.608;2023-11-22T16:14:28;24.98;;;11.25;;
22415;SDS011;12204;50.600;4.608;2023-11-22T16:19:32;24.85;;;10.43;;
22415;SDS011;12204;50.600;4.608;2023-11-22T16:24:37;19.92;;;10.20;;
22415;SDS011;12204;50.600;4.608;2023-11-22T16:29:41;20.70;;;10.02;;
22415;SDS011;12204;50.600;4.608;2023-11-22T16:34:44;25.08;;;11.02;;
22415;SDS011;12204;50.600;4.608;2023-11-22T16:39:49;46.92;;;11.75;;
22415;SDS011;12204;50.600;4.608;2023-11-22T16:44:52;53.55;;;11.23;;
22415;SDS011;12204;50.600;4.608;2023-11-22T16:49:57;47.58;;;10.82;;
22415;SDS011;12204;50.600;4.608;2023-11-22T16:55:02;55.03;;;10.60;;
22415;SDS011;12204;50.600;4.608;2023-11-22T17:00:08;41.05;;;10.23;;
22415;SDS011;12204;50.600;4.608;2023-11-22T17:05:19;45.40;;;10.02;;
22415;SDS011;12204;50.600;4.608;2023-11-22T17:10:24;40.33;;;9.93;;
22415;SDS011;12204;50.600;4.608;2023-11-22T17:15:47;38.17;;;9.63;;
22415;SDS011;12204;50.600;4.608;2023-11-22T17:20:50;40.85;;;9.50;;
22415;SDS011;12204;50.600;4.608;2023-11-22T17:25:56;37.53;;;9.43;;
22415;SDS011;12204;50.600;4.608;2023-11-22T17:31:00;36.78;;;9.05;;
22415;SDS011;12204;50.600;4.608;2023-11-22T17:36:04;34.40;;;8.85;;
22415;SDS011;12204;50.600;4.608;2023-11-22T17:41:09;31.10;;;8.48;;
22415;SDS011;12204;50.600;4.608;2023-11-22T17:46:13;32.03;;;8.75;;
22415;SDS011;12204;50.600;4.608;2023-11-22T17:51:16;33.15;;;8.65;;
22415;SDS011;12204;50.600;4.608;2023-11-22T17:56:21;29.27;;;7.78;;
22415;SDS011;12204;50.600;4.608;2023-11-22T18:01:25;29.42;;;8.23;;
22415;SDS011;12204;50.600;4.608;2023-11-22T18:06:30;23.88;;;7.85;;
22415;SDS011;12204;50.600;4.608;2023-11-22T18:11:35;23.92;;;6.68;;
22415;SDS011;12204;50.600;4.608;2023-11-22T18:16:38;23.20;;;6.38;;
22415;SDS011;12204;50.600;4.608;2023-11-22T18:21:43;26.52;;;7.05;;
22415;SDS011;12204;50.600;4.608;2023-11-22T18:26:48;39.80;;;13.25;;
22415;SDS011;12204;50.600;4.608;2023-11-22T18:31:52;32.38;;;10.27;;
22415;SDS011;12204;50.600;4.608;2023-11-22T18:36:56;37.70;;;12.35;;
22415;SDS011;12204;50.600;4.608;2023-11-22T18:42:03;37.97;;;12.93;;
22415;SDS011;12204;50.600;4.608;2023-11-22T18:47:07;40.80;;;14.43;;
22415;SDS011;12204;50.600;4.608;2023-11-22T18:52:12;46.47;;;17.45;;
22415;SDS011;12204;50.600;4.608;2023-11-22T18:57:16;59.17;;;21.35;;
22415;SDS011;12204;50.600;4.608;2023-11-22T19:02:20;62.22;;;22.90;;
22415;SDS011;12204;50.600;4.608;2023-11-22T19:07:24;60.00;;;24.25;;
22415;SDS011;12204;50.600;4.608;2023-11-22T19:12:29;59.55;;;22.90;;
22415;SDS011;12204;50.600;4.608;2023-11-22T19:17:32;61.88;;;23.70;;
22415;SDS011;12204;50.600;4.608;2023-11-22T19:22:36;68.00;;;26.25;;
22415;SDS011;12204;50.600;4.608;2023-11-22T19:27:43;68.53;;;25.20;;
22415;SDS011;12204;50.600;4.608;2023-11-22T19:32:46;68.33;;;25.23;;
22415;SDS011;12204;50.600;4.608;2023-11-22T19:37:50;72.93;;;26.27;;
22415;SDS011;12204;50.600;4.608;2023-11-22T19:42:55;78.90;;;28.30;;
22415;SDS011;12204;50.600;4.608;2023-11-22T19:47:58;83.43;;;28.30;;
22415;SDS011;12204;50.600;4.608;2023-11-22T19:53:02;73.85;;;29.02;;
22415;SDS011;12204;50.600;4.608;2023-11-22T19:58:07;76.85;;;30.27;;
22415;SDS011;12204;50.600;4.608;2023-11-22T20:03:11;78.03;;;30.75;;
22415;SDS011;12204;50.600;4.608;2023-11-22T20:08:14;84.60;;;31.48;;
22415;SDS011;12204;50.600;4.608;2023-11-22T20:13:19;78.68;;;32.15;;
22415;SDS011;12204;50.600;4.608;2023-11-22T20:18:23;83.72;;;32.35;;
22415;SDS011;12204;50.600;4.608;2023-11-22T20:23:27;81.38;;;32.15;;
22415;SDS011;12204;50.600;4.608;2023-11-22T20:28:32;90.65;;;34.83;;
22415;SDS011;12204;50.600;4.608;2023-11-22T20:33:36;114.90;;;40.55;;
22415;SDS011;12204;50.600;4.608;2023-11-22T20:38:40;134.07;;;40.03;;
22415;SDS011;12204;50.600;4.608;2023-11-22T20:43:52;131.88;;;41.08;;
22415;SDS011;12204;50.600;4.608;2023-11-22T20:48:59;123.10;;;42.30;;
22415;SDS011;12204;50.600;4.608;2023-11-22T20:54:03;119.90;;;41.55;;
22415;SDS011;12204;50.600;4.608;2023-11-22T20:59:08;128.52;;;42.30;;
22415;SDS011;12204;50.600;4.608;2023-11-22T21:04:12;118.10;;;40.88;;
22415;SDS011;12204;50.600;4.608;2023-11-22T21:09:17;109.43;;;40.22;;
22415;SDS011;12204;50.600;4.608;2023-11-22T21:14:22;103.25;;;38.72;;
22415;SDS011;12204;50.600;4.608;2023-11-22T21:19:26;112.43;;;38.00;;
22415;SDS011;12204;50.600;4.608;2023-11-22T21:24:29;98.45;;;36.38;;
22415;SDS011;12204;50.600;4.608;2023-11-22T21:29:34;100.13;;;36.75;;
22415;SDS011;12204;50.600;4.608;2023-11-22T21:34:37;98.78;;;34.78;;
22415;SDS011;12204;50.600;4.608;2023-11-22T21:39:41;92.70;;;35.35;;
22415;SDS011;12204;50.600;4.608;2023-11-22T21:44:46;92.03;;;34.42;;
22415;SDS011;12204;50.600;4.608;2023-11-22T21:49:49;161.73;;;59.50;;
22415;SDS011;12204;50.600;4.608;2023-11-22T21:54:53;209.73;;;76.00;;
22415;SDS011;12204;50.600;4.608;2023-11-22T21:59:58;248.88;;;93.55;;
22415;SDS011;12204;50.600;4.608;2023-11-22T22:05:07;234.68;;;90.25;;
22415;SDS011;12204;50.600;4.608;2023-11-22T22:10:11;241.00;;;96.13;;
22415;SDS011;12204;50.600;4.608;2023-11-22T22:15:16;238.60;;;97.13;;
22415;SDS011;12204;50.600;4.608;2023-11-22T22:20:21;232.53;;;95.47;;
22415;SDS011;12204;50.600;4.608;2023-11-22T22:25:26;228.32;;;92.65;;
22415;SDS011;12204;50.600;4.608;2023-11-22T22:30:31;223.27;;;92.25;;
22415;SDS011;12204;50.600;4.608;2023-11-22T22:35:35;217.48;;;91.72;;
22415;SDS011;12204;50.600;4.608;2023-11-22T22:40:38;218.60;;;91.30;;
22415;SDS011;12204;50.600;4.608;2023-11-22T22:45:43;210.00;;;90.93;;
22415;SDS011;12204;50.600;4.608;2023-11-22T22:50:47;211.85;;;89.70;;
22415;SDS011;12204;50.600;4.608;2023-11-22T22:55:51;201.07;;;86.78;;
22415;SDS011;12204;50.600;4.608;2023-11-22T23:00:55;199.98;;;85.82;;
22415;SDS011;12204;50.600;4.608;2023-11-22T23:05:59;200.80;;;83.78;;
22415;SDS011;12204;50.600;4.608;2023-11-22T23:11:04;203.95;;;85.35;;
22415;SDS011;12204;50.600;4.608;2023-11-22T23:16:09;195.25;;;83.85;;
22415;SDS011;12204;50.600;4.608;2023-11-22T23:21:13;186.48;;;80.80;;
22415;SDS011;12204;50.600;4.608;2023-11-22T23:26:18;194.23;;;81.65;;
22415;SDS011;12204;50.600;4.608;2023-11-22T23:31:24;174.18;;;76.68;;
22415;SDS011;12204;50.600;4.608;2023-11-22T23:36:27;174.70;;;76.20;;
22415;SDS011;12204;50.600;4.608;2023-11-22T23:41:33;170.77;;;74.25;;
22415;SDS011;12204;50.600;4.608;2023-11-22T23:46:38;159.05;;;70.30;;
22415;SDS011;12204;50.600;4.608;2023-11-22T23:51:43;167.38;;;71.38;;
22415;SDS011;12204;50.600;4.608;2023-11-22T23:56:50;164.57;;;71.38;;
